Latest Weather Observations for Gosford

IDN60801

Issued at 10:34 pm EDT Friday 19 December 2014 (issued every 30 minutes, with the page automatically refreshed every 10 minutes)

About weather observations | Map of weather stations | Latest weather observations for NSW | Other Formats
Station Details ID: 061425 Name: GOSFORD AWS Lat: -33.44 Lon: 151.36 Height: 7.0 m
Data from the previous 72 hours. | See also: Recent months at Gosford
Date/Time
EDT
Temp
°C
App
Temp
°C
Dew
Point
Rel
Hum
%
Delta-T
°C
Wind Press
QNH
hPa
Press
MSL
hPa
Rain
since 9 am
mm
Dir
 
Spd
km/h
Gust
km/h
Spd
kts
Gust
kts
19/10:30pm 19.1 17.8 11.2 60 4.3 SSE 9 15 5 8 - - 0.0
19/10:00pm 19.2 18.6 11.7 62 4.1 SSE 6 9 3 5 - - 0.0
19/09:30pm 19.2 18.0 11.7 62 4.1 SSE 9 15 5 8 - - 0.0
19/09:00pm 19.1 18.0 11.9 63 4.0 SSE 9 13 5 7 - - 0.0
19/08:30pm 19.1 18.0 12.1 64 3.9 SE 9 15 5 8 - - 0.0
19/08:00pm 19.1 17.6 11.9 63 4.0 SSE 11 17 6 9 - - 0.0
19/07:30pm 19.2 17.3 11.7 62 4.1 SSE 13 20 7 11 - - 0.0
19/07:00pm 19.3 18.2 12.1 63 4.0 SE 9 19 5 10 - - 0.0
19/06:30pm 20.1 17.9 12.1 60 4.5 S 15 28 8 15 - - 0.0
19/06:00pm 20.6 18.9 12.3 59 4.7 SSE 13 20 7 11 - - 0.0
19/05:30pm 20.7 18.6 12.4 59 4.7 SE 15 24 8 13 - - 0.0
19/05:00pm 20.7 18.3 11.3 55 5.2 SSE 15 24 8 13 - - 0.0
19/04:30pm 20.2 18.3 11.7 58 4.7 SE 13 24 7 13 - - 0.0
19/04:00pm 20.2 18.3 11.9 59 4.6 SE 13 24 7 13 - - 0.0
19/03:30pm 20.4 17.8 12.1 59 4.6 SE 17 26 9 14 - - 0.0
19/03:00pm 20.9 18.3 12.1 57 4.9 SSE 17 26 9 14 - - 0.0
19/02:30pm 21.2 19.2 12.6 58 4.9 SSE 15 33 8 18 - - 0.0
19/02:00pm 21.5 18.5 12.1 55 5.3 S 19 28 10 15 - - 0.0
19/01:30pm 21.4 19.2 12.0 55 5.3 SSE 15 30 8 16 - - 0.0
19/01:00pm 21.8 19.0 12.6 56 5.2 SSW 19 28 10 15 - - 0.0
19/12:30pm 21.9 18.8 11.6 52 5.7 SSW 19 28 10 15 - - 0.0
19/12:00pm 22.4 20.5 14.3 60 4.7 S 17 32 9 17 - - 0.0
19/11:30am 22.0 20.1 14.1 61 4.6 SSE 17 26 9 14 - - 0.0
19/11:00am 21.2 18.8 12.6 58 4.9 SSE 17 28 9 15 - - 0.0
19/10:30am 21.0 18.2 13.2 61 4.5 SSW 20 32 11 17 - - 0.0
19/10:00am 21.3 19.1 13.2 60 4.6 S 17 30 9 16 - - 0.0
19/09:30am 21.0 18.3 13.4 62 4.4 SSW 20 30 11 16 - - 0.0
19/09:00am 20.2 17.3 13.9 67 3.6 SSW 22 33 12 18 - - 0.4
19/08:30am 20.2 16.4 13.6 66 3.8 SSW 26 41 14 22 - - 0.4
19/08:00am 20.3 17.9 14.4 69 3.4 S 20 39 11 21 - - 0.4
19/07:30am 19.7 17.5 14.9 74 2.8 S 20 33 11 18 - - 0.4
19/07:00am 19.4 18.0 15.5 78 2.3 SSW 17 30 9 16 - - 0.4
19/06:30am 19.0 17.7 15.7 81 2.0 SSW 17 33 9 18 - - 0.4
19/06:00am 18.8 17.5 15.9 83 1.7 S 17 32 9 17 - - 0.4
19/05:30am 19.0 17.7 15.9 82 1.8 S 17 28 9 15 - - 0.4
19/05:00am 19.4 20.7 17.5 89 1.2 NNW 7 11 4 6 - - 0.4
19/04:30am 19.8 22.0 18.3 91 0.9 WNW 4 11 2 6 - - 0.4
19/04:00am 20.6 22.8 19.3 92 0.8 SW 6 13 3 7 - - 0.4
19/03:30am 20.4 22.3 19.7 96 0.4 W 9 19 5 10 - - 0.4
19/03:00am 18.2 20.5 17.6 96 0.4 SSW 2 6 1 3 - - 0.4
19/02:30am 18.1 20.7 17.6 97 0.3 CALM 0 0 0 0 - - 0.4
19/02:00am 18.2 20.8 17.6 96 0.4 CALM 0 0 0 0 - - 0.4
19/01:30am 18.4 21.0 17.6 95 0.5 CALM 0 0 0 0 - - 0.4
19/01:00am 18.9 21.7 17.9 94 0.6 CALM 0 0 0 0 - - 0.4
19/12:30am 19.8 23.1 19.1 96 0.4 CALM 0 0 0 0 - - 0.4
19/12:00am 19.9 23.1 18.9 94 0.6 CALM 0 0 0 0 - - 0.4
 
Date/Time
EDT
Temp
°C
App
Temp
°C
Dew
Point
Rel
Hum
%
Delta-T
°C
Wind Press
QNH
hPa
Press
MSL
hPa
Rain
since 9 am
mm
Dir
 
Spd
km/h
Gust
km/h
Spd
kts
Gust
kts
18/11:30pm 20.3 23.0 19.5 95 0.5 NE 4 6 2 3 - - 0.4
18/11:00pm 20.4 23.7 19.2 93 0.8 CALM 0 2 0 1 - - 0.4
18/10:30pm 20.7 24.1 19.4 92 0.8 CALM 0 4 0 2 - - 0.4
18/10:00pm 21.2 24.8 19.7 91 1.0 CALM 0 0 0 0 - - 0.4
18/09:30pm 21.6 24.9 19.9 90 1.1 E 2 4 1 2 - - 0.4
18/09:00pm 22.0 24.7 20.3 90 1.1 E 6 9 3 5 - - 0.4
18/08:30pm 22.4 25.4 20.1 87 1.5 NE 4 6 2 3 - - 0.4
18/08:00pm 22.9 26.0 20.2 85 1.7 ENE 4 7 2 4 - - 0.4
18/07:30pm 23.6 26.3 20.3 82 2.1 E 6 11 3 6 - - 0.4
18/07:00pm 24.6 26.8 20.3 77 2.8 ENE 9 15 5 8 - - 0.4
18/06:30pm 24.8 27.0 20.3 76 2.9 E 9 15 5 8 - - 0.4
18/06:00pm 24.7 26.7 20.0 75 3.0 ENE 9 19 5 10 - - 0.4
18/05:30pm 25.3 26.5 19.9 72 3.5 ENE 13 20 7 11 - - 0.4
18/05:00pm 26.1 26.7 20.2 70 3.8 ENE 17 26 9 14 - - 0.4
18/04:30pm 25.6 26.0 19.9 70 3.7 ENE 17 24 9 13 - - 0.4
18/04:00pm 25.5 26.8 19.2 68 4.0 ENE 11 20 6 11 - - 0.4
18/03:30pm 26.0 26.7 19.6 68 4.1 ENE 15 26 8 14 - - 0.4
18/03:00pm 25.5 26.0 19.2 68 4.0 ENE 15 24 8 13 - - 0.4
18/02:30pm 24.9 25.7 19.1 70 3.7 ENE 13 20 7 11 - - 0.4
18/02:00pm 23.9 25.4 19.0 74 3.1 E 9 15 5 8 - - 0.4
18/01:30pm 23.4 24.4 18.7 75 3.0 E 11 19 6 10 - - 0.4
18/01:00pm 23.7 25.2 18.8 74 3.1 ENE 9 17 5 9 - - 0.4
18/12:30pm 23.2 25.0 18.3 74 3.1 E 6 9 3 5 - - 0.4
18/12:00pm 23.1 24.3 18.2 74 3.1 ENE 9 15 5 8 - - 0.4
18/11:30am 23.1 24.3 18.2 74 3.1 E 9 17 5 9 - - 0.4
18/11:00am 22.7 24.6 18.5 77 2.6 SE 6 9 3 5 - - 0.4
18/10:30am 21.8 24.2 18.8 83 1.9 SW 4 7 2 4 - - 0.4
18/10:00am 21.4 23.7 18.6 84 1.8 SW 4 9 2 5 - - 0.4
18/09:30am 20.9 23.4 18.1 84 1.7 WSW 2 4 1 2 - - 0.4
18/09:00am 20.5 22.2 17.1 81 2.1 NW 4 6 2 3 - - 0.2
18/08:30am 20.5 21.9 16.5 78 2.4 W 4 7 2 4 - - 0.2
18/08:00am 20.4 22.5 16.2 77 2.5 CALM 0 0 0 0 - - 0.2
18/07:30am 20.1 22.1 16.1 78 2.4 CALM 0 4 0 2 - - 0.2
18/07:00am 19.8 21.2 16.3 80 2.1 W 4 6 2 3 - - 0.2
18/06:30am 19.4 21.5 16.2 82 1.9 CALM 0 0 0 0 - - 0.2
18/06:00am 19.1 21.0 15.8 81 2.0 CALM 0 0 0 0 - - 0.2
18/05:30am 19.1 20.9 15.6 80 2.1 CALM 0 0 0 0 - - 0.2
18/05:00am 19.1 20.9 15.4 79 2.2 CALM 0 6 0 3 - - 0.2
18/04:30am 19.0 20.7 15.3 79 2.2 CALM 0 0 0 0 - - 0.2
18/04:00am 19.0 20.7 15.3 79 2.2 CALM 0 2 0 1 - - 0.2
18/03:30am 19.2 20.9 15.3 78 2.3 CALM 0 0 0 0 - - 0.2
18/03:00am 19.1 20.8 15.2 78 2.3 CALM 0 2 0 1 - - 0.2
18/02:30am 19.3 21.0 15.2 77 2.4 CALM 0 2 0 1 - - 0.2
18/02:00am 19.3 20.5 15.0 76 2.5 NNE 2 4 1 2 - - 0.2
18/01:30am 19.5 21.1 15.0 75 2.6 CALM 0 6 0 3 - - 0.2
18/01:00am 19.4 20.9 14.6 74 2.8 CALM 0 0 0 0 - - 0.2
18/12:30am 19.5 20.9 14.5 73 2.9 CALM 0 0 0 0 - - 0.2
18/12:00am 19.6 21.0 14.4 72 3.0 CALM 0 0 0 0 - - 0.2
 
Date/Time
EDT
Temp
°C
App
Temp
°C
Dew
Point
Rel
Hum
%
Delta-T
°C
Wind Press
QNH
hPa
Press
MSL
hPa
Rain
since 9 am
mm
Dir
 
Spd
km/h
Gust
km/h
Spd
kts
Gust
kts
17/11:30pm 19.7 20.7 14.3 71 3.1 SSW 2 4 1 2 - - 0.2
17/11:00pm 19.8 20.4 14.2 70 3.2 SSW 4 7 2 4 - - 0.2
17/10:30pm 19.8 19.9 14.0 69 3.3 S 6 7 3 4 - - 0.2
17/10:00pm 19.8 20.1 13.5 67 3.6 S 4 7 2 4 - - 0.2
17/09:30pm 19.8 20.2 13.7 68 3.5 S 4 6 2 3 - - 0.2
17/09:00pm 19.8 19.8 13.5 67 3.6 ESE 6 11 3 6 - - 0.2
17/08:30pm 19.7 19.9 13.2 66 3.7 SE 4 7 2 4 - - 0.2
17/08:00pm 19.8 19.0 12.8 64 3.9 ESE 9 15 5 8 - - 0.2
17/07:30pm 19.8 19.4 13.0 65 3.9 ESE 7 13 4 7 - - 0.2
17/07:00pm 19.9 19.5 13.1 65 3.9 ESE 7 13 4 7 - - 0.2
17/06:30pm 19.8 18.6 12.8 64 3.9 SE 11 20 6 11 - - 0.2
17/06:00pm 19.9 18.3 12.9 64 4.0 SE 13 19 7 10 - - 0.2
17/05:30pm 20.1 18.1 12.8 63 4.1 ESE 15 24 8 13 - - 0.2
17/05:00pm 20.4 18.8 12.9 62 4.3 SE 13 20 7 11 - - 0.2
17/04:30pm 20.6 19.0 12.8 61 4.4 SE 13 22 7 12 - - 0.2
17/04:00pm 20.8 18.7 12.5 59 4.7 SE 15 26 8 14 - - 0.2
17/03:30pm 20.8 19.0 13.3 62 4.3 SSE 15 26 8 14 - - 0.2
17/03:00pm 21.7 20.4 13.6 60 4.7 SSE 13 19 7 10 - - 0.2
17/02:30pm 21.9 19.7 13.3 58 4.9 SSE 17 24 9 13 - - 0.2
17/02:00pm 22.5 19.9 13.3 56 5.3 S 19 30 10 16 - - 0.2
17/01:30pm 22.2 20.0 13.3 57 5.1 SSE 17 32 9 17 - - 0.2
17/01:00pm 21.9 19.6 13.0 57 5.1 S 17 30 9 16 - - 0.2
17/12:30pm 21.9 20.3 13.8 60 4.7 S 15 28 8 15 - - 0.2
17/12:00pm 22.4 20.6 14.5 61 4.6 S 17 32 9 17 - - 0.2
17/11:30am 21.7 19.2 13.6 60 4.7 S 19 30 10 16 - - 0.0
17/11:00am 20.9 17.7 13.1 61 4.4 S 22 37 12 20 - - 0.0
17/10:30am 21.1 19.1 14.0 64 4.1 S 17 33 9 18 - - 0.0
17/10:00am 20.8 18.3 14.0 65 3.9 S 20 35 11 19 - - 0.0
17/09:30am 20.8 19.3 14.2 66 3.8 S 15 24 8 13 - - 0.0
17/09:00am 20.6 17.9 14.5 68 3.6 SSW 22 35 12 19 - - 0.0
17/08:30am 20.7 18.3 15.5 72 3.1 S 22 39 12 21 - - 0.0
17/08:00am 20.5 17.3 15.3 72 3.1 S 26 44 14 24 - - 0.0
17/07:30am 20.4 17.8 16.0 76 2.6 SSW 24 37 13 20 - - 0.0
17/07:00am 20.2 17.3 16.2 78 2.4 SSW 26 43 14 23 - - 0.0
17/06:30am 20.3 18.7 16.5 79 2.3 SSW 20 39 11 21 - - 0.0
17/06:00am 20.6 19.0 16.6 78 2.4 S 20 39 11 21 - - 0.0
17/05:30am 24.3 23.0 13.8 52 6.2 S 13 30 7 16 - - 0.0
17/05:00am 25.1 23.5 11.6 42 7.7 NW 11 17 6 9 - - 0.0
17/04:30am 22.8 22.9 12.7 53 5.8 NW 4 11 2 6 - - 0.0
17/04:00am 22.4 23.2 12.6 54 5.6 CALM 0 6 0 3 - - 0.0
17/03:30am 23.1 23.6 12.7 52 6.0 N 2 6 1 3 - - 0.0
17/03:00am 24.8 23.8 12.4 46 7.1 N 9 13 5 7 - - 0.0
17/02:30am 26.6 25.9 11.9 40 8.4 N 7 13 4 7 - - 0.0
17/02:00am 25.4 24.9 12.6 45 7.4 N 7 13 4 7 - - 0.0
17/01:30am 23.5 23.5 13.7 54 5.7 N 6 9 3 5 - - 0.0
17/01:00am 21.7 22.1 14.8 65 4.1 NNW 6 11 3 6 - - 0.0
17/12:30am 20.4 21.7 15.2 72 3.1 ENE 2 4 1 2 - - 0.0
17/12:00am 21.1 22.4 16.1 73 3.0 E 4 6 2 3 - - 0.0
 
Date/Time
EDT
Temp
°C
App
Temp
°C
Dew
Point
Rel
Hum
%
Delta-T
°C
Wind Press
QNH
hPa
Press
MSL
hPa
Rain
since 9 am
mm
Dir
 
Spd
km/h
Gust
km/h
Spd
kts
Gust
kts
16/11:30pm 22.8 24.6 16.4 67 3.9 SE 2 6 1 3 - - 0.0
16/11:00pm 22.2 24.0 16.5 70 3.5 E 2 4 1 2 - - 0.0

Other Formats:

Comma delimited format used in spreadsheet applications
http://www.bom.gov.au/fwo/IDN60801/IDN60801.94782.axf

JavaScript Object Notation format (JSON) in row-major order
http://www.bom.gov.au/fwo/IDN60801/IDN60801.94782.json